イカルイト の空港の天気 - METARとTAF

イカルイト空港 ( CYFB / YFB ) - カナダ ヌナブト準州イカルイト
飛行場実況気象(Metar)
観測時間08/22 12:00 EDT (08/22 16:00 UTC)
風向・風速南 2m/s
視程10km以上
天気現象
少しの雲 雲底高度 430m
全天を覆う雲 雲底高度 4880m
気温7℃
湿度81%
気圧1018.4hPa
METARCYFB 221600Z 17003KT 130V200 30SM FEW014 OVC160 07/04 A3006 RMK SC1AC7 SLP184
過去の天気等 Google飛行場航空写真 Wunderground天気予報

過去48時間のMETAR

飛行場予報(TAF)
発表時間: 8/22 07:40 EDT (8/22 11:40 UTC)
予報対象時間: 22日8時 EDT ~ 23日8時 EDT
風向・風速不定 2m/s
視程10km以上
少しの雲 雲底高度 460m
全天の4割程度の雲 雲底高度 4570m
全天の8割程度の雲 雲底高度 7620m
22日11時 EDT から
風向・風速北西 5m/s
視程10km以上
全天の4割程度の雲 雲底高度 4570m
22日14時 EDT ~ 22日16時 EDT に徐々に
風向・風速北北西 8m/s
22日23時 EDT ~ 23日1時 EDT に徐々に
風向・風速北北西 4m/s
TAF CYFB 221140Z 2212/2312 VRB03KT P6SM FEW015 SCT150 BKN250
FM221500 32010KT P6SM SCT150
BECMG 2218/2220 33015KT
BECMG 2303/2305 33008KT RMK NXT FCST BY 221800Z